Time;durP1;ratioP1;P1;durP2;ratioP2;P2;SDS_P1;SDS_P2;PMS_P1;PMS_P2;Temp;Humidity;BMP_temperature;BMP_pressure;BME280_temperature;BME280_humidity;BME280_pressure;Samples;Min_cycle;Max_cycle;Signal;HPM_P1;HPM_P2
2023/03/09 00:04:06;;;;;;;8.60;5.20;;;;;;;19.18;51.85;96918.83;266924;1278;24318;-81
2023/03/09 00:10:10;;;;;;;;;;;;;;;19.12;52.29;96917.48;267216;1272;22617;-81
2023/03/09 00:16:19;;;;;;;10.20;5.80;;;;;;;19.08;52.64;96912.60;267148;1273;25361;-83
2023/03/09 00:22:22;;;;;;;8.90;5.70;;;;;;;18.98;53.12;96909.14;266982;1278;23357;-82
2023/03/09 00:28:25;;;;;;;10.60;5.20;;;;;;;19.11;53.11;96905.13;266295;1279;22772;-78
2023/03/09 00:34:28;;;;;;;10.50;5.60;;;;;;;19.20;53.25;96899.39;265585;1272;22583;-77
2023/03/09 00:40:53;;;;;;;9.00;5.40;;;;;;;19.22;53.18;96893.52;265474;1274;22720;-84
2023/03/09 00:47:18;;;;;;;9.90;5.80;;;;;;;19.44;52.84;96889.38;266613;1279;22566;-78
2023/03/09 00:53:21;;;;;;;12.20;6.10;;;;;;;19.42;52.80;96887.45;266278;1280;22825;-77
2023/03/09 00:59:24;;;;;;;13.10;6.50;;;;;;;19.50;52.78;96884.57;266515;1279;22701;-79
2023/03/09 01:05:27;;;;;;;11.40;6.90;;;;;;;19.51;52.89;96884.20;266261;1279;22566;-79
2023/03/09 01:11:31;;;;;;;15.00;8.10;;;;;;;19.45;53.15;96872.44;266360;1276;22526;-81
2023/03/09 01:17:34;;;;;;;13.40;7.70;;;;;;;19.30;53.47;96868.56;266668;1280;23266;-82
2023/03/09 01:23:38;;;;;;;12.10;7.30;;;;;;;19.52;53.09;96855.90;266988;1273;24215;-82
2023/03/09 01:29:41;;;;;;;15.30;7.70;;;;;;;19.55;53.16;96851.77;266748;1277;22644;-83
2023/03/09 01:35:45;;;;;;;13.70;7.80;;;;;;;19.38;53.54;96846.61;266897;1279;22527;-83
2023/03/09 01:41:48;;;;;;;11.10;6.50;;;;;;;19.53;52.92;96837.23;266931;1272;22528;-84
2023/03/09 01:47:52;;;;;;;10.80;6.10;;;;;;;19.34;53.08;96838.00;266813;1272;24336;-83
2023/03/09 01:53:55;;;;;;;9.20;5.80;;;;;;;19.45;52.71;96830.92;266860;1273;23469;-84
2023/03/09 02:00:07;;;;;;;10.30;5.90;;;;;;;19.30;53.10;96826.98;267298;1279;22529;-84
2023/03/09 02:06:29;;;;;;;9.20;6.00;;;;;;;19.46;53.08;96819.59;267011;1279;22530;-84
2023/03/09 02:12:35;;;;;;;10.00;5.50;;;;;;;19.54;53.05;96817.73;266989;1279;22706;-84
2023/03/09 02:18:39;;;;;;;7.70;5.20;;;;;;;19.55;53.27;96821.32;266824;1276;22529;-84
2023/03/09 02:24:49;;;;;;;7.80;5.10;;;;;;;19.64;53.19;96822.20;266952;1279;22524;-84
2023/03/09 02:30:53;;;;;;;10.00;5.60;;;;;;;19.64;53.34;96815.22;267128;1278;22545;-82
2023/03/09 02:36:56;;;;;;;8.90;5.60;;;;;;;19.59;53.57;96812.81;266823;1276;23883;-79
2023/03/09 02:43:02;;;;;;;8.90;6.20;;;;;;;19.49;53.82;96810.19;265630;1272;22783;-79
2023/03/09 02:49:05;;;;;;;10.40;6.40;;;;;;;19.42;54.11;96811.52;265634;1280;24287;-79
2023/03/09 02:55:08;;;;;;;9.30;6.10;;;;;;;19.41;54.27;96813.60;265663;1272;25442;-79
2023/03/09 03:01:11;;;;;;;9.00;6.00;;;;;;;19.47;54.19;96816.51;265588;1279;22571;-79
2023/03/09 03:07:19;;;;;;;11.70;5.70;;;;;;;19.49;54.23;96821.55;265601;1280;22596;-80
2023/03/09 03:13:23;;;;;;;9.70;5.90;;;;;;;19.25;55.10;96828.06;265728;1276;22758;-79
2023/03/09 03:19:28;;;;;;;9.50;6.00;;;;;;;19.58;54.46;96828.73;266975;1280;22566;-82
2023/03/09 03:25:31;;;;;;;9.90;6.80;;;;;;;19.59;54.29;96824.56;267034;1280;22644;-79
2023/03/09 03:31:35;;;;;;;10.20;6.30;;;;;;;19.43;54.35;96820.67;267055;1276;23372;-79
2023/03/09 03:37:39;;;;;;;8.90;5.80;;;;;;;19.36;54.57;96810.51;266577;1275;24204;-79
2023/03/09 03:43:50;;;;;;;6.50;4.70;;;;;;;19.39;54.34;96809.57;266276;1280;22536;-83
2023/03/09 03:49:56;;;;;;;6.50;4.50;;;;;;;19.45;54.43;96813.11;266585;1272;24238;-77
2023/03/09 03:56:00;;;;;;;5.10;3.80;;;;;;;19.47;54.51;96813.79;266556;1279;22530;-78
2023/03/09 04:02:04;;;;;;;6.30;3.90;;;;;;;19.47;54.69;96805.92;266985;1275;25401;-77
2023/03/09 04:08:08;;;;;;;5.70;3.70;;;;;;;19.53;54.48;96802.27;265589;1280;22557;-78
2023/03/09 04:14:12;;;;;;;5.20;3.40;;;;;;;19.31;54.84;96786.33;266363;1280;23402;-78
2023/03/09 04:20:15;;;;;;;5.00;3.10;;;;;;;19.17;55.06;96785.13;266098;1279;22573;-79
2023/03/09 04:26:19;;;;;;;4.90;2.60;;;;;;;19.12;54.93;96780.55;266526;1280;25303;-77
2023/03/09 04:32:54;;;;;;;5.30;3.20;;;;;;;19.26;54.64;96773.80;265687;1280;23099;-77
2023/03/09 04:38:58;;;;;;;5.20;3.10;;;;;;;19.19;54.95;96767.66;266089;1279;23614;-79
2023/03/09 04:45:06;;;;;;;5.40;3.20;;;;;;;19.35;54.70;96760.43;266179;1280;22816;-82
2023/03/09 04:51:09;;;;;;;3.80;2.50;;;;;;;19.38;54.67;96757.73;265932;1280;25354;-81
2023/03/09 04:57:13;;;;;;;4.50;2.40;;;;;;;19.39;54.78;96752.83;266016;1280;25759;-77
2023/03/09 05:03:17;;;;;;;3.20;2.40;;;;;;;19.36;54.86;96747.15;265724;1279;25463;-79
2023/03/09 05:09:24;;;;;;;4.70;2.80;;;;;;;19.32;55.05;96741.51;265689;1279;22539;-80
2023/03/09 05:15:28;;;;;;;3.50;2.50;;;;;;;19.23;55.06;96737.52;265585;1279;25946;-81
2023/03/09 05:21:32;;;;;;;3.20;2.40;;;;;;;19.13;55.00;96734.98;267255;1277;22598;-81
2023/03/09 05:27:36;;;;;;;3.20;2.10;;;;;;;19.30;54.66;96740.23;265920;1280;24365;-82
2023/03/09 05:33:41;;;;;;;2.90;2.10;;;;;;;19.56;54.18;96740.14;266031;1278;25291;-81
2023/03/09 05:39:44;;;;;;;3.00;2.10;;;;;;;19.71;54.02;96734.09;266076;1278;25501;-81
2023/03/09 05:45:56;;;;;;;3.50;2.20;;;;;;;19.70;54.14;96737.32;266694;1273;22735;-78
2023/03/09 05:51:59;;;;;;;3.20;2.20;;;;;;;19.68;54.16;96736.74;266115;1273;22746;-79
2023/03/09 05:58:03;;;;;;;2.90;2.10;;;;;;;19.69;54.25;96734.59;266218;1272;23125;-78
2023/03/09 06:04:07;;;;;;;4.10;2.60;;;;;;;19.60;54.43;96731.63;266210;1275;22524;-77
2023/03/09 06:10:12;;;;;;;4.20;2.50;;;;;;;19.67;54.30;96728.23;265945;1272;24272;-76
2023/03/09 06:16:16;;;;;;;3.30;2.20;;;;;;;19.75;54.25;96733.09;265757;1278;24231;-77
2023/03/09 06:22:19;;;;;;;3.20;2.10;;;;;;;19.85;54.11;96726.97;265869;1279;22533;-76
2023/03/09 06:28:23;;;;;;;3.40;2.30;;;;;;;19.89;53.98;96726.37;265997;1276;23204;-77
2023/03/09 06:34:31;;;;;;;3.60;2.20;;;;;;;20.18;53.40;96730.27;265750;1275;22559;-77
2023/03/09 06:40:37;;;;;;;2.40;1.90;;;;;;;20.46;53.00;96730.63;266271;1279;22541;-79
2023/03/09 06:46:41;;;;;;;4.30;2.40;;;;;;;20.61;52.59;96733.95;266599;1272;22732;-84
2023/03/09 06:52:45;;;;;;;2.80;1.90;;;;;;;20.49;53.02;96735.00;265612;1277;22621;-79
2023/03/09 06:58:55;;;;;;;3.50;2.00;;;;;;;20.69;52.50;96731.70;266224;1272;22526;-80
2023/03/09 07:04:58;;;;;;;2.80;1.60;;;;;;;20.68;52.22;96723.42;266549;1278;22629;-78
2023/03/09 07:11:01;;;;;;;4.30;1.90;;;;;;;20.85;51.63;96721.23;266745;1277;22531;-79
2023/03/09 07:17:04;;;;;;;2.70;1.80;;;;;;;21.24;51.14;96717.16;267394;1278;25271;-78
2023/03/09 07:23:11;;;;;;;3.70;2.00;;;;;;;21.08;51.19;96718.38;266751;1279;22522;-76
2023/03/09 07:29:15;;;;;;;9.90;2.20;;;;;;;21.10;51.12;96713.91;266670;1278;22556;-78
2023/03/09 07:35:21;;;;;;;;;;;;;;;21.51;50.34;96712.39;266452;1275;25351;-78
2023/03/09 07:41:24;;;;;;;3.20;2.10;;;;;;;21.67;49.66;96707.23;267752;1272;22548;-77
2023/03/09 07:47:27;;;;;;;3.70;2.20;;;;;;;21.69;49.59;96704.58;266971;1275;84100;-77
2023/03/09 07:53:31;;;;;;;2.20;1.70;;;;;;;21.70;49.36;96690.49;267669;1278;23851;-77
2023/03/09 07:59:33;;;;;;;2.70;1.80;;;;;;;22.20;48.40;96678.46;267008;1279;22646;-77
2023/03/09 08:05:40;;;;;;;3.20;1.70;;;;;;;22.21;48.46;96675.20;267488;1279;22519;-76
2023/03/09 08:11:44;;;;;;;5.00;2.10;;;;;;;22.00;48.79;96683.69;267675;1275;24293;-78
2023/03/09 08:17:47;;;;;;;4.30;1.80;;;;;;;22.01;49.32;96688.86;267437;1273;23172;-78
2023/03/09 08:23:50;;;;;;;3.90;2.20;;;;;;;22.15;49.66;96699.48;266855;1272;25132;-77
2023/03/09 08:29:54;;;;;;;2.80;2.00;;;;;;;21.97;50.77;96710.91;266888;1275;22570;-82
2023/03/09 08:36:29;;;;;;;3.70;2.50;;;;;;;22.27;50.70;96722.29;267793;1279;22576;-82
2023/03/09 08:42:36;;;;;;;4.60;2.50;;;;;;;22.65;50.57;96720.64;268356;1279;22738;-83
2023/03/09 08:48:39;;;;;;;5.00;2.60;;;;;;;22.80;50.69;96721.25;269497;1279;22564;-90
2023/03/09 08:54:56;;;;;;;5.10;2.70;;;;;;;22.95;50.47;96724.83;271070;1272;22548;-93
2023/03/09 09:01:41;;;;;;;5.00;3.00;;;;;;;22.93;50.60;96725.04;270826;1282;23203;-91
2023/03/09 09:07:45;;;;;;;4.80;2.80;;;;;;;22.87;50.68;96724.48;266939;1280;25439;-78
2023/03/09 09:13:52;;;;;;;3.80;2.30;;;;;;;22.82;50.85;96723.45;265901;1276;22931;-79
2023/03/09 09:19:54;;;;;;;2.90;1.90;;;;;;;22.72;51.05;96721.45;265817;1277;24313;-76
2023/03/09 09:25:58;;;;;;;5.40;2.10;;;;;;;23.05;50.55;96721.04;265380;1276;25353;-75
2023/03/09 09:32:01;;;;;;;3.50;2.10;;;;;;;23.20;50.46;96722.96;265348;1275;23218;-78
2023/03/09 09:38:07;;;;;;;3.00;2.30;;;;;;;23.61;50.01;96727.47;265282;1283;22579;-85
2023/03/09 09:44:23;;;;;;;3.70;1.90;;;;;;;23.25;50.14;96727.10;264991;1279;26384;-82
2023/03/09 09:50:49;;;;;;;2.40;1.90;;;;;;;23.25;50.28;96724.06;264984;1282;22648;-79
2023/03/09 09:57:00;;;;;;;3.00;1.70;;;;;;;23.47;50.13;96731.46;264975;1282;25427;-80
2023/03/09 10:03:39;;;;;;;3.60;1.80;;;;;;;23.79;49.71;96734.10;265101;1277;25516;-79
2023/03/09 10:09:49;;;;;;;3.20;1.80;;;;;;;23.70;50.22;96742.77;265312;1279;25506;-79
2023/03/09 10:16:02;;;;;;;3.00;2.20;;;;;;;23.66;50.77;96751.20;265558;1277;22550;-78
2023/03/09 10:22:16;;;;;;;3.90;2.40;;;;;;;23.44;51.20;96756.48;265816;1277;22528;-79
2023/03/09 10:28:21;;;;;;;5.20;2.50;;;;;;;23.60;51.11;96759.21;265360;1282;22527;-80
2023/03/09 10:34:28;;;;;;;3.50;2.10;;;;;;;23.10;51.69;96773.68;265440;1276;22552;-79
2023/03/09 10:40:37;;;;;;;4.60;1.70;;;;;;;22.35;53.08;96781.45;265153;1276;22613;-78
2023/03/09 10:47:00;;;;;;;3.20;1.60;;;;;;;21.79;54.01;96797.00;265439;1282;22539;-80
2023/03/09 10:53:27;;;;;;;2.40;1.50;;;;;;;22.08;53.70;96805.13;265224;1276;23918;-78
2023/03/09 10:59:31;;;;;;;3.60;2.10;;;;;;;21.06;55.56;96817.64;265307;1280;25489;-79
2023/03/09 11:05:35;;;;;;;3.80;2.70;;;;;;;20.93;56.73;96832.41;265250;1276;25399;-77
2023/03/09 11:11:39;;;;;;;4.40;2.80;;;;;;;21.05;56.25;96834.68;265589;1281;24230;-79
2023/03/09 11:17:44;;;;;;;4.80;2.80;;;;;;;20.57;57.00;96849.12;265513;1261;25644;-80
2023/03/09 11:23:59;;;;;;;5.30;3.40;;;;;;;21.17;56.56;96853.90;265544;1276;22560;-78
2023/03/09 11:30:16;;;;;;;5.30;3.60;;;;;;;21.19;56.04;96864.34;265747;1281;24214;-79
2023/03/09 11:36:24;;;;;;;5.70;3.80;;;;;;;20.88;56.87;96877.04;265727;1273;25350;-78
2023/03/09 11:42:36;;;;;;;7.90;5.00;;;;;;;21.06;56.50;96885.73;265877;1274;24765;-77
2023/03/09 11:48:48;;;;;;;6.70;5.10;;;;;;;21.13;56.35;96901.30;266025;1281;24236;-78
2023/03/09 11:54:52;;;;;;;7.50;4.70;;;;;;;20.94;56.64;96911.81;266153;1280;24459;-77
2023/03/09 12:01:21;;;;;;;6.30;3.40;;;;;;;20.19;57.66;96922.39;265523;1280;26295;-77
2023/03/09 12:07:43;;;;;;;3.70;2.40;;;;;;;19.87;57.59;96939.71;265828;1280;22568;-86
2023/03/09 12:14:36;;;;;;;3.60;2.00;;;;;;;20.09;57.20;96958.68;266818;1283;22509;-88
2023/03/09 12:20:52;;;;;;;4.80;1.80;;;;;;;19.89;56.80;96970.84;265807;1283;26837;-80
2023/03/09 12:27:13;;;;;;;3.40;1.80;;;;;;;20.11;56.54;96979.10;265784;1283;22552;-81
2023/03/09 12:34:02;;;;;;;3.30;2.10;;;;;;;20.16;56.42;96992.23;266197;1288;22532;-85
2023/03/09 12:40:27;;;;;;;3.30;1.80;;;;;;;20.27;56.15;97012.25;266186;1286;22630;-82
2023/03/09 12:46:48;;;;;;;3.00;1.50;;;;;;;20.27;55.94;97023.59;265969;1288;22560;-83
2023/03/09 12:53:01;;;;;;;2.30;1.60;;;;;;;20.34;55.76;97046.77;266837;1283;23807;-83
2023/03/09 12:59:11;;;;;;;3.10;1.70;;;;;;;20.64;55.23;97055.58;266848;1281;22642;-83
2023/03/09 13:05:24;;;;;;;2.30;1.40;;;;;;;20.54;55.01;97062.32;267277;1281;22562;-84
2023/03/09 13:11:31;;;;;;;2.50;1.70;;;;;;;21.23;53.36;97074.61;267062;1276;23451;-83
2023/03/09 13:17:37;;;;;;;3.00;2.10;;;;;;;21.08;53.04;97087.08;267046;1281;22552;-82
2023/03/09 13:23:40;;;;;;;3.00;1.70;;;;;;;21.33;52.49;97096.42;266409;1279;22637;-84
2023/03/09 13:29:46;;;;;;;3.40;1.70;;;;;;;20.94;52.98;97111.77;266395;1282;27545;-84
2023/03/09 13:36:04;;;;;;;4.10;1.50;;;;;;;21.09;52.75;97130.23;266779;1281;22540;-82
2023/03/09 13:42:14;;;;;;;6.00;2.90;;;;;;;21.23;52.15;97142.98;266290;1276;22867;-83
2023/03/09 13:48:17;;;;;;;2.90;1.60;;;;;;;21.34;51.79;97157.41;266468;1282;22626;-82
2023/03/09 13:54:28;;;;;;;2.70;1.60;;;;;;;21.23;51.81;97180.55;266527;1277;23353;-82
2023/03/09 14:00:32;;;;;;;2.10;1.50;;;;;;;21.19;51.78;97187.65;266384;1283;24296;-82
2023/03/09 14:06:36;;;;;;;2.90;1.50;;;;;;;21.42;51.12;97192.95;265294;1283;22893;-83
2023/03/09 14:13:12;;;;;;;3.80;1.80;;;;;;;21.33;51.38;97210.04;266468;1282;22553;-83
2023/03/09 14:19:27;;;;;;;4.20;1.90;;;;;;;21.55;50.78;97212.66;265680;1282;22620;-83
2023/03/09 14:25:31;;;;;;;2.90;2.00;;;;;;;21.40;50.87;97220.00;266021;1277;25419;-82
2023/03/09 14:31:34;;;;;;;4.00;2.40;;;;;;;21.48;50.59;97236.08;265331;1281;22568;-84
2023/03/09 14:37:38;;;;;;;4.70;3.20;;;;;;;21.01;51.35;97244.87;266054;1276;24230;-82
2023/03/09 14:43:43;;;;;;;6.00;3.20;;;;;;;20.83;51.37;97251.02;265332;1278;23130;-83
2023/03/09 14:49:52;;;;;;;6.20;3.90;;;;;;;20.72;51.25;97252.73;265515;1277;22544;-80
2023/03/09 14:55:55;;;;;;;7.30;5.00;;;;;;;20.18;51.55;97259.11;265347;1282;23270;-79
2023/03/09 15:02:02;;;;;;;7.70;5.20;;;;;;;19.97;51.48;97266.55;265607;1275;22617;-75
2023/03/09 15:08:09;;;;;;;8.60;6.00;;;;;;;19.71;51.71;97273.55;265851;1259;22519;-74
2023/03/09 15:14:27;;;;;;;8.70;6.00;;;;;;;19.48;51.70;97288.85;265422;1279;22619;-72
2023/03/09 15:20:34;;;;;;;10.20;5.70;;;;;;;19.15;52.04;97300.43;265514;1275;22592;-77
2023/03/09 15:26:47;;;;;;;8.40;5.40;;;;;;;18.74;52.58;97319.98;265923;1277;23350;-79
2023/03/09 15:32:53;;;;;;;7.60;5.10;;;;;;;19.20;52.12;97330.30;266151;1282;22554;-79
2023/03/09 15:38:56;;;;;;;7.20;5.50;;;;;;;18.62;52.74;97340.11;265436;1281;22593;-80
2023/03/09 15:45:00;;;;;;;8.20;5.70;;;;;;;18.63;52.80;97341.98;265672;1281;25527;-80
2023/03/09 15:51:04;;;;;;;8.80;6.20;;;;;;;18.83;52.26;97356.67;265293;1282;24491;-79
2023/03/09 15:57:16;;;;;;;8.30;6.00;;;;;;;19.56;51.05;97358.23;265723;1282;26920;-79
2023/03/09 16:03:20;;;;;;;9.20;5.80;;;;;;;18.90;52.02;97360.92;265824;1282;22524;-79
2023/03/09 16:09:26;;;;;;;10.20;6.80;;;;;;;18.71;51.37;97379.92;265692;1277;24305;-78
2023/03/09 16:15:30;;;;;;;11.10;7.00;;;;;;;18.95;51.06;97391.23;265522;1274;25508;-78
2023/03/09 16:21:33;;;;;;;11.50;7.10;;;;;;;19.23;50.29;97406.89;266884;1282;22711;-78
2023/03/09 16:27:42;;;;;;;11.40;7.60;;;;;;;18.87;50.98;97422.94;265651;1275;24327;-78
2023/03/09 16:33:48;;;;;;;10.70;7.10;;;;;;;18.53;51.47;97432.27;265632;1281;22556;-78
2023/03/09 16:39:51;;;;;;;11.80;7.50;;;;;;;18.89;50.65;97450.50;265813;1270;24419;-78
2023/03/09 16:45:56;;;;;;;10.20;7.50;;;;;;;19.28;49.72;97464.39;265831;1274;24233;-78
2023/03/09 16:52:01;;;;;;;12.90;8.80;;;;;;;19.24;49.63;97482.02;265702;1264;24157;-77
2023/03/09 16:58:04;;;;;;;14.30;9.00;;;;;;;19.58;49.00;97492.05;265821;1275;22544;-82
2023/03/09 17:04:08;;;;;;;13.90;9.20;;;;;;;19.25;49.33;97500.55;265386;1281;22632;-82
2023/03/09 17:10:17;;;;;;;16.10;10.10;;;;;;;19.52;49.03;97504.90;265722;1275;22571;-82
2023/03/09 17:16:25;;;;;;;15.70;10.80;;;;;;;19.59;48.55;97518.23;265681;1277;22543;-85
2023/03/09 17:22:28;;;;;;;13.60;9.30;;;;;;;19.57;48.60;97527.98;266310;1274;25244;-78
2023/03/09 17:28:31;;;;;;;14.30;9.30;;;;;;;19.75;48.02;97536.95;265341;1275;22596;-78
2023/03/09 17:34:35;;;;;;;14.20;10.20;;;;;;;19.97;47.77;97554.83;265502;1274;22580;-79
2023/03/09 17:40:47;;;;;;;16.40;9.70;;;;;;;19.92;47.99;97565.84;265644;1275;22532;-79
2023/03/09 17:46:54;;;;;;;13.20;8.50;;;;;;;19.91;47.94;97577.66;265711;1278;22550;-85
2023/03/09 17:52:57;;;;;;;10.90;7.20;;;;;;;20.16;47.57;97585.49;266149;1281;22566;-80
2023/03/09 17:59:02;;;;;;;12.80;8.00;;;;;;;20.34;47.18;97594.38;265719;1274;22534;-80
2023/03/09 18:05:05;;;;;;;14.60;9.30;;;;;;;20.15;47.58;97605.73;265548;1281;25513;-80
2023/03/09 18:11:13;;;;;;;17.10;10.20;;;;;;;19.84;48.41;97616.39;265261;1274;22533;-80
2023/03/09 18:17:17;;;;;;;14.60;10.10;;;;;;;19.90;48.44;97616.23;265625;1275;22579;-79
2023/03/09 18:23:21;;;;;;;15.80;10.30;;;;;;;19.67;48.18;97616.73;265717;1275;23439;-79
2023/03/09 18:29:36;;;;;;;18.60;12.50;;;;;;;19.76;48.20;97626.52;265559;1274;22560;-79
2023/03/09 18:35:43;;;;;;;20.50;13.10;;;;;;;19.40;48.73;97630.77;265562;1274;25411;-79
2023/03/09 18:41:47;;;;;;;19.10;12.90;;;;;;;18.82;49.61;97631.02;265564;1280;22647;-79
2023/03/09 18:47:52;;;;;;;19.30;12.90;;;;;;;18.71;49.86;97624.48;265471;1278;25422;-79
2023/03/09 18:53:56;;;;;;;20.10;13.90;;;;;;;18.82;49.69;97622.98;265508;1275;22532;-79
2023/03/09 19:00:01;;;;;;;21.00;13.40;;;;;;;18.97;49.41;97624.84;265573;1279;22643;-79
2023/03/09 19:06:10;;;;;;;19.90;13.20;;;;;;;18.67;49.90;97627.15;265544;1280;22624;-79
2023/03/09 19:12:13;;;;;;;20.10;12.20;;;;;;;19.27;48.78;97619.77;265724;1274;22562;-80
2023/03/09 19:18:17;;;;;;;18.80;12.60;;;;;;;19.36;48.97;97620.58;265633;1274;22547;-78
2023/03/09 19:24:21;;;;;;;19.90;12.90;;;;;;;19.49;48.48;97617.70;265722;1259;25473;-80
2023/03/09 19:30:25;;;;;;;19.50;11.90;;;;;;;19.35;49.17;97622.43;265590;1274;22642;-79
2023/03/09 19:36:30;;;;;;;19.30;12.50;;;;;;;19.16;49.51;97623.23;266112;1281;23246;-83
2023/03/09 19:42:43;;;;;;;20.90;12.80;;;;;;;19.02;49.80;97619.36;266311;1282;22577;-88
2023/03/09 19:48:47;;;;;;;20.90;12.80;;;;;;;18.98;49.90;97625.17;266472;1275;197994;-82
2023/03/09 19:54:50;;;;;;;19.90;13.00;;;;;;;18.91;50.16;97617.25;265790;1282;22517;-82
2023/03/09 20:00:58;;;;;;;22.90;14.30;;;;;;;18.84;50.24;97615.77;265697;1275;22605;-85
2023/03/09 20:07:02;;;;;;;21.30;13.70;;;;;;;18.72;49.99;97615.70;266325;1281;24214;-81
2023/03/09 20:13:05;;;;;;;23.10;13.40;;;;;;;18.73;50.26;97614.73;265530;1280;22556;-79
2023/03/09 20:19:12;;;;;;;23.30;14.60;;;;;;;18.55;50.77;97610.52;265806;1274;24384;-77
2023/03/09 20:25:15;;;;;;;20.00;13.00;;;;;;;18.69;50.72;97613.02;265667;1275;22554;-82
2023/03/09 20:31:22;;;;;;;22.70;14.40;;;;;;;18.56;51.02;97606.34;265698;1275;24231;-80
2023/03/09 20:37:26;;;;;;;23.30;14.50;;;;;;;18.57;50.85;97611.50;265797;1275;22556;-77
2023/03/09 20:43:29;;;;;;;22.80;14.30;;;;;;;18.52;51.21;97609.23;265986;1275;22540;-80
2023/03/09 20:49:36;;;;;;;21.10;13.10;;;;;;;18.66;51.04;97607.98;266641;1275;22527;-85
2023/03/09 20:55:42;;;;;;;17.90;11.80;;;;;;;18.87;50.71;97607.18;266863;1274;22584;-84
2023/03/09 21:01:48;;;;;;;21.40;12.20;;;;;;;18.61;51.18;97599.66;266821;1279;23294;-81
2023/03/09 21:07:52;;;;;;;21.10;13.10;;;;;;;18.57;51.03;97587.97;265576;1278;22541;-79
2023/03/09 21:13:55;;;;;;;19.50;11.40;;;;;;;18.48;51.09;97576.91;265326;1275;25648;-81
2023/03/09 21:27:46;;;;;;;;;;;;;;;;;;;;;
2023/03/09 21:33:54;;;;;;;21.30;12.80;;;;;;;18.31;51.65;97579.88;269590;1286;22614;-81
2023/03/09 21:40:20;;;;;;;23.00;14.50;;;;;;;18.11;51.95;97581.05;270811;1260;23942;-92
2023/03/09 21:47:21;;;;;;;;;;;;;;;;;;;;;
2023/03/09 21:53:27;;;;;;;19.60;12.40;;;;;;;18.41;51.44;97562.60;266956;1285;22596;-86
2023/03/09 21:59:34;;;;;;;24.30;14.80;;;;;;;18.34;51.56;97555.05;268214;1285;26017;-89
2023/03/09 22:05:43;;;;;;;24.00;14.70;;;;;;;18.27;51.71;97547.36;268787;1258;22659;-92
2023/03/09 22:11:50;;;;;;;22.50;15.10;;;;;;;18.28;51.67;97552.67;267539;1282;22532;-89
2023/03/09 22:18:03;;;;;;;22.20;14.50;;;;;;;18.30;51.77;97559.78;267021;1283;22518;-87
2023/03/09 22:24:10;;;;;;;24.50;15.30;;;;;;;18.15;52.29;97551.88;267415;1283;22525;-88
2023/03/09 22:38:29;;;;;;;29.10;17.00;;;;;;;17.74;53.63;97538.23;267862;1284;22501;-88
2023/03/09 22:44:38;;;;;;;28.10;17.30;;;;;;;16.80;55.66;97537.73;267924;1283;23274;-85
2023/03/09 22:50:42;;;;;;;;;;;;;;;16.96;55.40;97532.95;268926;1277;22475;-89
2023/03/09 22:56:57;;;;;;;24.60;14.80;;;;;;;17.45;54.21;97527.06;271647;1277;22707;-90
2023/03/09 23:03:08;;;;;;;28.70;16.70;;;;;;;17.43;53.96;97526.88;269563;1283;22580;-89
2023/03/09 23:09:15;;;;;;;28.40;17.90;;;;;;;17.50;53.79;97532.98;267277;1276;23002;-89
2023/03/09 23:15:27;;;;;;;30.70;17.10;;;;;;;17.39;53.72;97531.38;267314;1283;23929;-89
2023/03/09 23:21:30;;;;;;;29.30;16.50;;;;;;;16.89;54.63;97522.10;267187;1276;23197;-88
2023/03/09 23:27:34;;;;;;;29.10;16.50;;;;;;;16.83;54.66;97521.42;266597;1283;22551;-87
2023/03/09 23:33:44;;;;;;;31.00;18.10;;;;;;;16.60;54.95;97520.64;267069;1282;22550;-87
2023/03/09 23:39:47;;;;;;;30.00;19.30;;;;;;;17.03;54.13;97521.21;266953;1283;22701;-88
2023/03/09 23:46:06;;;;;;;34.10;18.60;;;;;;;17.16;53.75;97521.86;266784;1282;23226;-88
2023/03/09 23:52:24;;;;;;;32.20;19.40;;;;;;;17.26;53.46;97529.17;268740;1282;22574;-93
